createdAt,value
2022-07-25T06:45:18.182Z,18.56
2022-07-25T06:48:28.569Z,18.89
2022-07-25T06:51:15.213Z,19.13
2022-07-25T06:53:54.604Z,19.27
2022-07-25T06:56:42.496Z,19.37
2022-07-25T06:59:35.605Z,19.50
2022-07-25T07:02:22.820Z,19.63
2022-07-25T07:05:02.961Z,19.78
2022-07-25T07:12:42.330Z,20.04
2022-07-25T07:15:28.626Z,20.16
2022-07-25T07:21:20.441Z,20.45
2022-07-25T07:24:48.360Z,20.62
2022-07-25T07:27:36.193Z,20.68
2022-07-25T07:30:58.457Z,20.68
2022-07-25T07:33:22.754Z,20.73
2022-07-25T07:36:17.671Z,20.69
2022-07-25T07:39:23.105Z,20.61
2022-07-25T07:42:03.467Z,20.59
2022-07-25T07:44:54.881Z,20.63
2022-07-25T07:47:51.141Z,20.72
2022-07-25T07:50:39.794Z,20.83
2022-07-25T07:53:32.083Z,21.00
2022-07-25T07:56:02.177Z,21.05
2022-07-25T07:58:41.880Z,21.17
2022-07-25T08:01:26.057Z,21.29
2022-07-25T08:04:08.279Z,21.39
2022-07-25T08:06:47.541Z,21.39
2022-07-25T08:09:45.607Z,21.43
2022-07-25T08:12:21.266Z,21.43
2022-07-25T08:15:11.469Z,21.46
2022-07-25T08:17:57.474Z,21.64
2022-07-25T08:20:58.614Z,21.78
2022-07-25T08:23:39.489Z,21.74
2022-07-25T08:26:09.923Z,21.79
2022-07-25T08:29:18.642Z,21.84
2022-07-25T08:31:53.868Z,21.92
2022-07-25T08:34:27.498Z,22.07
2022-07-25T08:37:19.714Z,22.16
2022-07-25T08:40:15.221Z,22.22
2022-07-25T08:43:10.843Z,22.34
2022-07-25T08:45:51.498Z,22.47
2022-07-25T08:48:40.911Z,22.63
2022-07-25T08:51:19.715Z,22.80
2022-07-25T08:54:27.582Z,22.75
2022-07-25T08:57:21.790Z,22.69
2022-07-25T09:00:10.862Z,22.65
2022-07-25T09:03:12.397Z,22.62
2022-07-25T09:06:02.945Z,22.68
2022-07-25T09:08:36.290Z,22.86
2022-07-25T09:11:36.865Z,22.95
2022-07-25T09:14:23.469Z,23.17
2022-07-25T09:16:56.920Z,23.53
2022-07-25T09:19:29.711Z,23.80
2022-07-25T09:22:12.219Z,23.99
2022-07-25T09:24:50.412Z,24.19
2022-07-25T09:28:05.020Z,24.27
2022-07-25T09:31:15.676Z,24.46
2022-07-25T09:34:16.800Z,24.78
2022-07-25T09:37:03.699Z,25.05
2022-07-25T09:39:58.175Z,25.43
2022-07-25T09:42:43.308Z,25.56
2022-07-25T09:45:35.907Z,25.71
2022-07-25T09:48:18.270Z,25.82
2022-07-25T09:50:50.774Z,25.83
2022-07-25T09:53:45.437Z,25.96
2022-07-25T09:57:07.466Z,26.25
2022-07-25T09:59:56.802Z,26.21
2022-07-25T10:02:38.467Z,26.27
2022-07-25T10:05:45.150Z,26.49
2022-07-25T10:08:22.967Z,26.47
2022-07-25T10:11:33.390Z,26.66
2022-07-25T10:14:42.851Z,26.96
2022-07-25T10:17:43.346Z,27.21
2022-07-25T10:20:38.696Z,27.46
2022-07-25T10:23:39.132Z,27.80
2022-07-25T10:26:49.700Z,27.85
2022-07-25T10:29:46.186Z,28.06
2022-07-25T10:32:18.335Z,27.76
2022-07-25T10:35:05.306Z,27.68
2022-07-25T10:37:38.101Z,27.88
2022-07-25T10:40:48.972Z,28.07
2022-07-25T10:44:03.686Z,28.12
2022-07-25T10:47:07.567Z,28.22
2022-07-25T10:50:40.295Z,28.29
2022-07-25T10:53:50.039Z,27.95
2022-07-25T10:56:39.828Z,27.92
2022-07-25T10:59:34.807Z,28.00
2022-07-25T11:02:10.777Z,28.02
2022-07-25T11:05:02.091Z,28.11
2022-07-25T11:08:20.700Z,28.16
2022-07-25T11:11:42.114Z,28.14
2022-07-25T11:15:07.270Z,28.18
2022-07-25T11:17:40.958Z,28.60
2022-07-25T11:20:20.665Z,28.83
2022-07-25T11:23:16.608Z,28.73
2022-07-25T11:25:59.211Z,28.72
2022-07-25T11:28:53.075Z,28.98
2022-07-25T11:31:37.417Z,29.08
2022-07-25T11:34:40.355Z,29.00
2022-07-25T11:37:20.001Z,29.22
2022-07-25T11:40:08.689Z,29.05
2022-07-25T11:42:52.056Z,29.15
2022-07-25T11:45:41.457Z,29.13
2022-07-25T11:48:35.475Z,29.36
2022-07-25T11:51:28.947Z,29.67
2022-07-25T11:54:21.073Z,29.77
2022-07-25T11:56:58.010Z,29.77
2022-07-25T11:59:43.214Z,29.90
2022-07-25T12:02:32.053Z,29.92
2022-07-25T12:05:28.205Z,30.11
2022-07-25T12:08:23.654Z,30.34
2022-07-25T12:10:56.418Z,30.04
2022-07-25T12:13:55.806Z,30.02
2022-07-25T12:16:44.790Z,30.04
2022-07-25T12:19:32.949Z,29.81
2022-07-25T12:22:22.216Z,29.90
2022-07-25T12:24:58.827Z,30.27
2022-07-25T12:27:39.681Z,30.56
2022-07-25T12:30:29.908Z,30.84
2022-07-25T12:33:06.121Z,30.74
2022-07-25T12:35:45.877Z,30.75
2022-07-25T12:38:21.914Z,30.87
2022-07-25T12:41:02.979Z,30.76
2022-07-25T12:43:39.218Z,30.77
2022-07-25T12:46:24.253Z,30.94
2022-07-25T12:49:04.257Z,30.83
2022-07-25T12:52:08.296Z,30.55
2022-07-25T12:55:08.304Z,30.77
2022-07-25T13:01:13.367Z,31.11
2022-07-25T13:03:53.805Z,31.20
2022-07-25T13:06:34.408Z,31.12
2022-07-25T13:09:15.446Z,30.96
2022-07-25T13:11:52.016Z,30.86
2022-07-25T13:14:37.599Z,30.89
2022-07-25T13:17:27.716Z,31.20
2022-07-25T13:20:12.105Z,31.27
2022-07-25T13:22:45.746Z,31.23
2022-07-25T13:25:41.069Z,31.08
2022-07-25T13:28:23.954Z,30.95
2022-07-25T13:31:02.280Z,30.92
2022-07-25T13:33:32.528Z,30.87
2022-07-25T13:36:17.266Z,31.01
2022-07-25T13:39:10.963Z,31.24
2022-07-25T13:41:54.469Z,31.66
2022-07-25T13:44:55.824Z,31.88
2022-07-25T13:47:44.219Z,32.13
2022-07-25T13:50:24.011Z,31.96
2022-07-25T13:53:07.032Z,31.67
2022-07-25T13:55:50.976Z,31.80
2022-07-25T13:58:45.368Z,31.97
2022-07-25T14:01:39.633Z,31.76
2022-07-25T14:04:30.623Z,31.78
2022-07-25T14:07:09.944Z,31.90
2022-07-25T14:10:00.902Z,31.86
2022-07-25T14:12:48.637Z,31.67
2022-07-25T14:15:35.289Z,31.35
2022-07-25T14:18:48.938Z,31.39
2022-07-25T14:21:36.378Z,31.56
2022-07-25T14:24:33.561Z,30.81
2022-07-25T14:27:50.912Z,30.41
2022-07-25T14:30:42.924Z,30.54
2022-07-25T14:33:38.781Z,30.58
2022-07-25T14:36:53.861Z,30.45
2022-07-25T14:39:44.285Z,30.14
2022-07-25T14:42:42.586Z,30.22
2022-07-25T14:45:28.127Z,30.22
2022-07-25T14:48:30.293Z,30.20
2022-07-25T14:52:35.326Z,30.12
2022-07-25T14:55:46.310Z,30.08
2022-07-25T14:58:56.663Z,30.23
2022-07-25T15:02:24.910Z,30.19
2022-07-25T15:05:26.977Z,29.86
2022-07-25T15:07:59.442Z,29.65
2022-07-25T15:10:33.358Z,29.49
2022-07-25T15:13:44.077Z,29.46
2022-07-25T15:16:22.583Z,29.49
2022-07-25T15:19:15.342Z,29.33
2022-07-25T15:21:58.432Z,29.05
2022-07-25T15:25:14.048Z,28.91
2022-07-25T15:27:42.587Z,28.75
2022-07-25T15:30:18.172Z,28.68
2022-07-25T15:32:53.205Z,28.59
2022-07-25T15:35:37.474Z,28.58
2022-07-25T15:38:19.491Z,28.42
2022-07-25T15:41:00.086Z,28.22
2022-07-25T15:43:38.074Z,28.15
2022-07-25T15:46:36.971Z,28.05
2022-07-25T15:49:15.827Z,27.88
2022-07-25T15:51:56.191Z,27.78
2022-07-25T15:54:34.379Z,27.80
2022-07-25T15:57:08.401Z,27.83
2022-07-25T15:59:39.552Z,27.76
2022-07-25T16:02:17.539Z,27.60
2022-07-25T16:04:57.676Z,27.55
2022-07-25T16:07:50.342Z,27.50
2022-07-25T16:10:24.538Z,27.47
2022-07-25T16:13:30.743Z,27.48
2022-07-25T16:16:28.514Z,27.47
2022-07-25T16:18:59.385Z,27.42
2022-07-25T16:21:42.157Z,27.32
2022-07-25T16:24:12.046Z,27.24
2022-07-25T16:27:01.889Z,27.11
2022-07-25T16:29:34.463Z,26.98
2022-07-25T16:32:30.240Z,26.94
2022-07-25T16:35:06.175Z,26.95
2022-07-25T16:37:56.178Z,26.88
2022-07-25T16:40:44.635Z,26.89
2022-07-25T16:43:37.453Z,26.86
2022-07-25T16:46:07.966Z,26.82
2022-07-25T16:48:55.513Z,26.77
2022-07-25T16:51:52.798Z,26.68
2022-07-25T16:54:27.905Z,26.60
2022-07-25T16:57:10.081Z,26.47
2022-07-25T16:59:50.800Z,26.39
2022-07-25T17:02:56.441Z,26.38
2022-07-25T17:05:39.285Z,26.38
2022-07-25T17:08:42.050Z,26.34
2022-07-25T17:11:17.643Z,26.29
2022-07-25T17:14:15.976Z,26.26
2022-07-25T17:17:01.650Z,26.15
2022-07-25T17:19:40.679Z,26.10
2022-07-25T17:22:14.070Z,26.06
2022-07-25T17:24:55.657Z,26.04
2022-07-25T17:27:26.796Z,26.01
2022-07-25T17:30:05.273Z,25.96
2022-07-25T17:32:45.539Z,25.88
2022-07-25T17:35:34.855Z,25.82
2022-07-25T17:38:04.145Z,25.75
2022-07-25T17:40:37.945Z,25.71
2022-07-25T17:43:24.267Z,25.68
2022-07-25T17:45:53.771Z,25.63
2022-07-25T17:48:50.123Z,25.57
2022-07-25T17:51:32.145Z,25.57
2022-07-25T17:54:13.871Z,25.56
2022-07-25T17:56:45.684Z,25.54
2022-07-25T17:59:31.836Z,25.55
2022-07-25T18:02:15.951Z,25.48
2022-07-25T18:04:46.866Z,25.39
2022-07-25T18:07:19.910Z,25.29
2022-07-25T18:09:49.473Z,25.18
2022-07-25T18:12:33.384Z,25.10
2022-07-25T18:15:21.388Z,25.02
2022-07-25T18:18:34.512Z,24.95
2022-07-25T18:21:28.802Z,24.84
2022-07-25T18:24:07.945Z,24.73
2022-07-25T18:26:50.641Z,24.63
2022-07-25T18:29:27.256Z,24.52
2022-07-25T18:32:18.914Z,24.47
2022-07-25T18:34:55.761Z,24.36
2022-07-25T18:37:40.391Z,24.27
2022-07-25T18:40:24.550Z,24.18
2022-07-25T18:43:03.051Z,24.09
2022-07-25T18:45:58.829Z,24.02
2022-07-25T18:49:08.880Z,23.97
2022-07-25T18:51:47.674Z,23.89
2022-07-25T18:54:44.413Z,23.83
2022-07-25T18:57:42.787Z,23.75
2022-07-25T19:00:19.701Z,23.66
2022-07-25T19:02:56.308Z,23.58
2022-07-25T19:05:25.653Z,23.51
2022-07-25T19:08:12.414Z,23.44
2022-07-25T19:10:46.951Z,23.37
2022-07-25T19:13:39.089Z,23.29
2022-07-25T19:16:34.939Z,23.19
2022-07-25T19:19:08.239Z,23.11
2022-07-25T19:21:48.879Z,23.03
2022-07-25T19:24:43.347Z,22.95
2022-07-25T19:27:36.756Z,22.87
2022-07-25T19:30:38.067Z,22.81
2022-07-25T19:33:36.321Z,22.76
2022-07-25T19:36:15.479Z,22.73
2022-07-25T19:38:57.682Z,22.70
2022-07-25T19:41:32.048Z,22.64
2022-07-25T19:44:28.845Z,22.61
2022-07-25T19:47:09.892Z,22.59
2022-07-25T19:49:45.683Z,22.56
2022-07-25T19:52:38.354Z,22.53
2022-07-25T19:55:12.074Z,22.51
2022-07-25T19:58:04.936Z,22.50
2022-07-25T20:00:43.656Z,22.46
2022-07-25T20:03:28.250Z,22.42
2022-07-25T20:06:20.337Z,22.41
2022-07-25T20:08:52.586Z,22.38
2022-07-25T20:12:01.374Z,22.37
2022-07-25T20:14:46.953Z,22.31
2022-07-25T20:17:27.109Z,22.27
2022-07-25T20:20:10.459Z,22.23
2022-07-25T20:23:20.890Z,22.19
2022-07-25T20:26:00.414Z,22.15
2022-07-25T20:28:50.879Z,22.11
2022-07-25T20:31:25.786Z,22.09
2022-07-25T20:34:25.612Z,22.07
2022-07-25T20:37:22.520Z,22.04
2022-07-25T20:40:19.833Z,21.99
2022-07-25T20:43:11.578Z,21.96
2022-07-25T20:46:14.208Z,21.89
2022-07-25T20:48:56.832Z,21.84
2022-07-25T20:51:31.255Z,21.80
2022-07-25T20:54:03.172Z,21.73
2022-07-25T20:56:35.817Z,21.66
2022-07-25T20:59:22.725Z,21.59
2022-07-25T21:01:53.012Z,21.52
2022-07-25T21:04:30.424Z,21.44
2022-07-25T21:07:02.388Z,21.35
2022-07-25T21:12:46.563Z,21.16
2022-07-25T21:15:31.607Z,21.04
2022-07-25T21:18:13.921Z,20.95
2022-07-25T21:21:01.903Z,20.88
2022-07-25T21:23:34.345Z,20.82
2022-07-25T21:26:43.727Z,20.77
2022-07-25T21:29:19.232Z,20.75
2022-07-25T21:32:04.071Z,20.71
2022-07-25T21:34:50.159Z,20.65
2022-07-25T21:37:25.005Z,20.60
2022-07-25T21:40:10.051Z,20.54
2022-07-25T21:42:55.648Z,20.50
2022-07-25T21:45:35.704Z,20.45
2022-07-25T21:48:13.349Z,20.39
2022-07-25T21:50:57.438Z,20.31
2022-07-25T21:53:29.187Z,20.24
2022-07-25T21:56:03.096Z,20.18
2022-07-25T21:58:37.814Z,20.16
2022-07-25T22:01:10.577Z,20.14
2022-07-25T22:03:42.972Z,20.10
2022-07-25T22:06:19.821Z,20.07
2022-07-25T22:08:55.406Z,20.04
2022-07-25T22:11:46.154Z,20.03
2022-07-25T22:14:22.262Z,20.02
2022-07-25T22:17:06.326Z,20.01
2022-07-25T22:19:50.222Z,20.00
2022-07-25T22:22:34.344Z,19.96
2022-07-25T22:25:20.818Z,19.93
2022-07-25T22:27:54.295Z,19.89
2022-07-25T22:30:43.122Z,19.85
2022-07-25T22:33:21.688Z,19.84
2022-07-25T22:35:56.208Z,19.81
2022-07-25T22:38:27.721Z,19.78
2022-07-25T22:41:19.077Z,19.76
2022-07-25T22:43:57.927Z,19.72
2022-07-25T22:46:38.761Z,19.71
2022-07-25T22:49:17.849Z,19.69
2022-07-25T22:51:50.164Z,19.65
2022-07-25T22:54:26.850Z,19.62
2022-07-25T22:57:07.088Z,19.59
2022-07-25T22:59:51.432Z,19.55
2022-07-25T23:02:28.917Z,19.51
2022-07-25T23:05:04.728Z,19.48
2022-07-25T23:08:00.700Z,19.43
2022-07-25T23:10:48.037Z,19.40
2022-07-25T23:13:29.323Z,19.35
2022-07-25T23:16:15.908Z,19.30
2022-07-25T23:18:58.136Z,19.24
2022-07-25T23:21:41.844Z,19.19
2022-07-25T23:24:34.408Z,19.15
2022-07-25T23:27:27.594Z,19.08
2022-07-25T23:30:10.383Z,19.02
2022-07-25T23:32:54.909Z,19.02
2022-07-25T23:35:33.061Z,19.04
2022-07-25T23:38:21.219Z,19.04
2022-07-25T23:41:21.932Z,19.03
2022-07-25T23:44:05.614Z,18.98
2022-07-25T23:47:25.633Z,18.96
2022-07-25T23:50:12.063Z,18.94
2022-07-25T23:53:14.241Z,18.91
2022-07-25T23:55:50.909Z,18.88
2022-07-25T23:58:37.285Z,18.84
